createdAt,value
2023-04-30T00:00:08.708Z,7.62
2023-04-30T00:02:39.384Z,7.61
2023-04-30T00:05:07.618Z,7.61
2023-04-30T00:07:35.231Z,7.60
2023-04-30T00:10:03.280Z,7.55
2023-04-30T00:12:32.605Z,7.63
2023-04-30T00:15:01.587Z,7.58
2023-04-30T00:17:34.516Z,7.57
2023-04-30T00:20:02.155Z,7.55
2023-04-30T00:22:33.389Z,7.58
2023-04-30T00:25:01.278Z,7.53
2023-04-30T00:27:30.359Z,7.50
2023-04-30T00:29:58.566Z,7.44
2023-04-30T00:32:26.248Z,7.45
2023-04-30T00:34:53.889Z,7.44
2023-04-30T00:37:21.453Z,7.38
2023-04-30T00:39:49.156Z,7.35
2023-04-30T00:42:16.994Z,7.37
2023-04-30T00:44:44.640Z,7.33
2023-04-30T00:47:12.304Z,7.32
2023-04-30T00:49:39.906Z,7.26
2023-04-30T00:52:07.379Z,7.27
2023-04-30T00:54:35.034Z,7.21
2023-04-30T00:57:03.129Z,7.20
2023-04-30T00:59:31.666Z,7.17
2023-04-30T01:01:59.410Z,7.17
2023-04-30T01:04:27.594Z,7.16
2023-04-30T01:06:56.799Z,7.11
2023-04-30T01:09:24.571Z,7.12
2023-04-30T01:12:02.077Z,7.13
2023-04-30T01:14:54.789Z,7.14
2023-04-30T01:17:39.578Z,7.11
2023-04-30T01:20:09.886Z,6.98
2023-04-30T01:22:50.899Z,6.97
2023-04-30T01:25:21.187Z,6.97
2023-04-30T01:28:03.768Z,6.97
2023-04-30T01:30:32.960Z,6.85
2023-04-30T01:33:01.002Z,6.88
2023-04-30T01:35:51.676Z,6.97
2023-04-30T01:38:37.929Z,6.97
2023-04-30T01:41:37.928Z,6.95
2023-04-30T01:45:03.200Z,7.01
2023-04-30T01:48:23.882Z,7.02
2023-04-30T01:50:56.944Z,6.94
2023-04-30T01:53:33.254Z,6.92
2023-04-30T01:56:08.470Z,6.89
2023-04-30T01:58:37.935Z,6.92
2023-04-30T02:01:05.679Z,6.92
2023-04-30T02:03:33.909Z,6.91
2023-04-30T02:06:01.847Z,6.93
2023-04-30T02:08:29.509Z,6.96
2023-04-30T02:10:57.140Z,7.00
2023-04-30T02:13:24.837Z,7.06
2023-04-30T02:15:52.614Z,7.07
2023-04-30T02:18:20.147Z,7.15
2023-04-30T02:20:47.802Z,7.19
2023-04-30T02:23:16.309Z,7.21
2023-04-30T02:25:43.925Z,7.27
2023-04-30T02:28:11.443Z,7.29
2023-04-30T02:30:39.383Z,7.34
2023-04-30T02:33:07.247Z,7.42
2023-04-30T02:35:34.917Z,7.47
2023-04-30T02:38:02.410Z,7.52
2023-04-30T02:40:29.999Z,7.60
2023-04-30T02:42:57.590Z,7.72
2023-04-30T02:45:25.189Z,7.77
2023-04-30T02:47:52.714Z,7.78
2023-04-30T02:50:20.379Z,7.86
2023-04-30T02:52:47.836Z,7.90
2023-04-30T02:55:15.592Z,7.97
2023-04-30T02:57:43.218Z,8.02
2023-04-30T03:00:11.453Z,8.10
2023-04-30T03:02:39.691Z,8.16
2023-04-30T03:05:07.569Z,8.23
2023-04-30T03:07:35.133Z,8.37
2023-04-30T03:10:02.994Z,8.50
2023-04-30T03:12:31.570Z,8.63
2023-04-30T03:14:59.030Z,8.72
2023-04-30T03:17:26.662Z,8.87
2023-04-30T03:19:54.415Z,8.97
2023-04-30T03:22:24.089Z,9.04
2023-04-30T03:24:51.774Z,9.20
2023-04-30T03:27:19.355Z,9.24
2023-04-30T03:29:47.176Z,9.40
2023-04-30T03:32:14.757Z,9.55
2023-04-30T03:34:42.388Z,9.70
2023-04-30T03:37:09.923Z,9.79
2023-04-30T03:39:37.479Z,9.92
2023-04-30T03:42:05.079Z,10.07
2023-04-30T03:44:32.689Z,10.16
2023-04-30T03:47:00.229Z,10.33
2023-04-30T03:49:27.891Z,10.46
2023-04-30T03:51:55.629Z,10.55
2023-04-30T03:54:23.203Z,10.63
2023-04-30T03:56:50.946Z,10.67
2023-04-30T03:59:19.441Z,10.82
2023-04-30T04:01:47.181Z,10.92
2023-04-30T04:04:14.970Z,11.04
2023-04-30T04:06:43.881Z,11.13
2023-04-30T04:09:11.626Z,11.20
2023-04-30T04:11:42.520Z,11.24
2023-04-30T04:14:10.091Z,11.35
2023-04-30T04:16:37.821Z,11.46
2023-04-30T04:19:06.768Z,11.46
2023-04-30T04:21:34.730Z,11.50
2023-04-30T04:24:08.883Z,11.56
2023-04-30T04:26:37.916Z,11.57
2023-04-30T04:29:05.797Z,11.60
2023-04-30T04:31:33.380Z,11.59
2023-04-30T04:34:04.607Z,11.66
2023-04-30T04:36:34.233Z,11.69
2023-04-30T04:39:02.565Z,11.71
2023-04-30T04:41:34.268Z,11.81
2023-04-30T04:44:04.400Z,11.86
2023-04-30T04:46:32.424Z,11.97
2023-04-30T04:49:00.260Z,11.96
2023-04-30T04:51:27.913Z,11.99
2023-04-30T04:53:55.634Z,12.00
2023-04-30T04:56:23.402Z,12.00
2023-04-30T04:58:50.997Z,11.94
2023-04-30T05:01:18.774Z,11.92
2023-04-30T05:03:48.922Z,11.98
2023-04-30T05:06:16.737Z,12.04
2023-04-30T05:08:44.238Z,12.08
2023-04-30T05:11:14.128Z,12.08
2023-04-30T05:13:42.993Z,12.15
2023-04-30T05:16:10.547Z,12.25
2023-04-30T05:18:38.288Z,12.38
2023-04-30T05:21:05.853Z,12.52
2023-04-30T05:23:33.475Z,12.67
2023-04-30T05:26:01.113Z,12.75
2023-04-30T05:28:28.609Z,12.79
2023-04-30T05:30:56.234Z,12.85
2023-04-30T05:33:23.815Z,12.97
2023-04-30T05:35:51.302Z,13.13
2023-04-30T05:38:18.962Z,13.26
2023-04-30T05:40:46.573Z,13.37
2023-04-30T05:43:14.175Z,13.58
2023-04-30T05:45:41.762Z,13.59
2023-04-30T05:48:09.404Z,13.56
2023-04-30T05:50:36.865Z,13.55
2023-04-30T05:53:04.462Z,13.56
2023-04-30T05:55:32.206Z,13.61
2023-04-30T05:57:59.781Z,13.73
2023-04-30T06:00:27.250Z,13.70
2023-04-30T06:02:54.916Z,13.78
2023-04-30T06:05:22.479Z,13.89
2023-04-30T06:07:50.098Z,14.09
2023-04-30T06:10:17.595Z,14.16
2023-04-30T06:12:45.169Z,14.23
2023-04-30T06:15:12.662Z,14.24
2023-04-30T06:17:40.425Z,14.33
2023-04-30T06:20:08.659Z,14.42
2023-04-30T06:22:36.874Z,14.48
2023-04-30T06:25:04.807Z,14.47
2023-04-30T06:27:33.639Z,14.67
2023-04-30T06:30:01.316Z,14.81
2023-04-30T06:32:33.173Z,14.96
2023-04-30T06:35:00.802Z,15.18
2023-04-30T06:37:28.375Z,15.36
2023-04-30T06:39:56.170Z,15.46
2023-04-30T06:42:24.245Z,15.64
2023-04-30T06:44:51.851Z,15.74
2023-04-30T06:47:19.335Z,15.80
2023-04-30T06:49:46.873Z,15.74
2023-04-30T06:52:14.316Z,15.75
2023-04-30T06:54:43.053Z,15.75
2023-04-30T06:57:10.713Z,15.77
2023-04-30T06:59:38.865Z,15.77
2023-04-30T07:02:06.552Z,15.96
2023-04-30T07:04:34.021Z,16.22
2023-04-30T07:07:05.235Z,16.29
2023-04-30T07:09:36.632Z,16.42
2023-04-30T07:12:04.395Z,16.46
2023-04-30T07:14:31.946Z,16.53
2023-04-30T07:16:59.610Z,16.61
2023-04-30T07:19:27.139Z,16.70
2023-04-30T07:21:54.836Z,16.61
2023-04-30T07:24:22.784Z,16.48
2023-04-30T07:26:50.482Z,16.35
2023-04-30T07:29:18.425Z,16.27
2023-04-30T07:31:46.144Z,16.19
2023-04-30T07:34:13.774Z,16.06
2023-04-30T07:36:41.536Z,15.87
2023-04-30T07:39:09.190Z,15.70
2023-04-30T07:41:36.739Z,15.75
2023-04-30T07:44:04.303Z,15.88
2023-04-30T07:46:32.253Z,15.97
2023-04-30T07:48:59.810Z,15.97
2023-04-30T07:51:27.541Z,16.02
2023-04-30T07:53:55.288Z,16.04
2023-04-30T07:56:23.049Z,16.00
2023-04-30T07:58:50.636Z,15.93
2023-04-30T08:01:18.344Z,15.73
2023-04-30T08:03:46.672Z,15.61
2023-04-30T08:06:14.612Z,15.54
2023-04-30T08:08:42.205Z,15.25
2023-04-30T08:11:09.903Z,15.04
2023-04-30T08:13:37.456Z,14.86
2023-04-30T08:16:05.558Z,14.78
2023-04-30T08:18:33.261Z,14.64
2023-04-30T08:21:01.582Z,14.45
2023-04-30T08:23:29.179Z,14.33
2023-04-30T08:25:56.746Z,14.34
2023-04-30T08:28:24.322Z,14.33
2023-04-30T08:30:51.842Z,14.31
2023-04-30T08:33:19.657Z,14.31
2023-04-30T08:35:47.176Z,14.41
2023-04-30T08:38:14.846Z,14.44
2023-04-30T08:40:51.473Z,14.46
2023-04-30T08:43:20.540Z,14.46
2023-04-30T08:45:50.505Z,14.45
2023-04-30T08:48:19.278Z,14.48
2023-04-30T08:50:46.917Z,14.43
2023-04-30T08:53:17.514Z,14.39
2023-04-30T08:55:45.494Z,14.36
2023-04-30T08:58:13.204Z,14.32
2023-04-30T09:00:41.918Z,14.27
2023-04-30T09:03:09.695Z,14.25
2023-04-30T09:05:38.509Z,14.17
2023-04-30T09:08:08.726Z,14.18
2023-04-30T09:10:36.423Z,14.12
2023-04-30T09:13:12.187Z,14.00
2023-04-30T09:15:46.029Z,13.90
2023-04-30T09:18:17.890Z,13.86
2023-04-30T09:21:03.728Z,13.95
2023-04-30T09:23:31.434Z,13.82
2023-04-30T09:25:59.014Z,13.87
2023-04-30T09:28:28.988Z,13.93
2023-04-30T09:30:57.962Z,14.00
2023-04-30T09:33:25.710Z,14.04
2023-04-30T09:35:53.498Z,14.09
2023-04-30T09:38:32.355Z,14.13
2023-04-30T09:41:01.980Z,14.07
2023-04-30T09:43:30.608Z,14.06
2023-04-30T09:45:59.864Z,14.01
2023-04-30T09:48:31.694Z,14.01
2023-04-30T09:51:03.875Z,14.02
2023-04-30T09:53:33.638Z,14.01
2023-04-30T09:56:07.039Z,14.05
2023-04-30T09:58:38.902Z,14.04
2023-04-30T10:01:08.584Z,13.97
2023-04-30T10:03:36.804Z,13.98
2023-04-30T10:06:04.585Z,13.97
2023-04-30T10:08:38.313Z,13.91
2023-04-30T10:11:08.460Z,13.86
2023-04-30T10:13:47.167Z,13.90
2023-04-30T10:16:30.268Z,13.94
2023-04-30T10:19:03.852Z,13.85
2023-04-30T10:21:32.693Z,13.85
2023-04-30T10:24:00.564Z,13.87
2023-04-30T10:26:29.451Z,13.85
2023-04-30T10:29:01.029Z,13.80
2023-04-30T10:31:30.815Z,13.81
2023-04-30T10:34:29.434Z,13.89
2023-04-30T10:37:01.300Z,13.86
2023-04-30T10:39:29.514Z,13.98
2023-04-30T10:42:05.300Z,14.10
2023-04-30T10:44:35.126Z,14.09
2023-04-30T10:47:04.680Z,14.13
2023-04-30T10:49:33.052Z,14.13
2023-04-30T10:52:27.827Z,14.25
2023-04-30T10:54:55.718Z,14.11
2023-04-30T10:57:23.236Z,14.10
2023-04-30T10:59:50.759Z,14.09
2023-04-30T11:02:18.378Z,14.10
2023-04-30T11:05:08.034Z,14.27
2023-04-30T11:07:36.259Z,14.23
2023-04-30T11:10:04.211Z,14.35
2023-04-30T11:12:31.928Z,14.36
2023-04-30T11:15:11.865Z,14.49
2023-04-30T11:17:40.021Z,14.51
2023-04-30T11:20:13.586Z,14.61
2023-04-30T11:22:41.465Z,14.71
2023-04-30T11:25:11.415Z,14.82
2023-04-30T11:27:43.046Z,14.91
2023-04-30T11:30:18.371Z,15.20
2023-04-30T11:32:48.334Z,15.35
2023-04-30T11:35:19.910Z,15.68
2023-04-30T11:37:48.484Z,15.78
2023-04-30T11:40:16.106Z,15.75
2023-04-30T11:42:46.171Z,15.76
2023-04-30T11:45:23.641Z,15.69
2023-04-30T11:47:54.831Z,15.52
2023-04-30T11:50:29.411Z,15.19
2023-04-30T11:52:59.386Z,14.95
2023-04-30T11:55:28.566Z,14.81
2023-04-30T11:57:58.763Z,14.77
2023-04-30T12:00:31.683Z,14.80
2023-04-30T12:03:03.877Z,14.83
2023-04-30T12:05:31.885Z,14.93
2023-04-30T12:08:13.066Z,14.94
2023-04-30T12:10:40.633Z,14.84
2023-04-30T12:13:08.286Z,14.79
2023-04-30T12:15:37.188Z,14.64
2023-04-30T12:18:13.722Z,14.67
2023-04-30T12:20:42.445Z,14.56
2023-04-30T12:23:10.508Z,14.55
2023-04-30T12:25:43.202Z,14.46
2023-04-30T12:28:12.058Z,14.38
2023-04-30T12:30:39.642Z,14.23
2023-04-30T12:33:11.066Z,14.03
2023-04-30T12:35:43.361Z,13.94
2023-04-30T12:38:11.585Z,13.86
2023-04-30T12:40:39.132Z,13.79
2023-04-30T12:43:08.566Z,13.74
2023-04-30T12:45:53.895Z,13.81
2023-04-30T12:48:24.556Z,13.72
2023-04-30T12:51:03.232Z,13.77
2023-04-30T12:53:32.268Z,13.70
2023-04-30T12:56:17.583Z,13.69
2023-04-30T12:58:48.680Z,13.57
2023-04-30T13:01:24.632Z,13.48
2023-04-30T13:03:53.874Z,13.40
2023-04-30T13:06:25.292Z,13.36
2023-04-30T13:11:24.361Z,13.30
2023-04-30T13:13:52.097Z,13.30
2023-04-30T13:16:19.968Z,13.22
2023-04-30T13:18:47.739Z,13.20
2023-04-30T13:21:15.706Z,13.13
2023-04-30T13:23:51.956Z,13.00
2023-04-30T13:26:22.248Z,12.89
2023-04-30T13:28:50.487Z,12.84
2023-04-30T13:31:18.541Z,12.76
2023-04-30T13:33:46.451Z,12.70
2023-04-30T13:36:14.410Z,12.70
2023-04-30T13:38:42.302Z,12.75
2023-04-30T13:41:09.781Z,12.73
2023-04-30T13:43:41.491Z,12.66
2023-04-30T13:46:10.162Z,12.66
2023-04-30T13:48:37.914Z,12.68
2023-04-30T13:51:05.703Z,12.65
2023-04-30T13:53:33.351Z,12.63
2023-04-30T13:56:01.054Z,12.63
2023-04-30T13:58:28.730Z,12.60
2023-04-30T14:00:56.733Z,12.53
2023-04-30T14:03:24.482Z,12.42
2023-04-30T14:05:52.588Z,12.35
2023-04-30T14:08:22.573Z,12.33
2023-04-30T14:10:51.472Z,12.26
2023-04-30T14:13:19.157Z,12.21
2023-04-30T14:15:47.904Z,12.18
2023-04-30T14:18:15.797Z,12.16
2023-04-30T14:20:43.529Z,12.12
2023-04-30T14:23:11.135Z,12.13
2023-04-30T14:25:38.941Z,12.05
2023-04-30T14:28:06.560Z,12.07
2023-04-30T14:30:34.078Z,12.01
2023-04-30T14:33:01.767Z,12.05
2023-04-30T14:35:29.465Z,12.01
2023-04-30T14:37:57.056Z,11.96
2023-04-30T14:40:24.592Z,11.96
2023-04-30T14:42:52.770Z,11.98
2023-04-30T14:45:20.817Z,11.93
2023-04-30T14:47:48.832Z,11.93
2023-04-30T14:50:16.684Z,11.94
2023-04-30T14:52:44.293Z,11.89
2023-04-30T14:55:11.934Z,11.90
2023-04-30T14:57:39.786Z,11.87
2023-04-30T15:00:08.143Z,11.81
2023-04-30T15:02:36.392Z,11.77
2023-04-30T15:05:08.738Z,11.77
2023-04-30T15:07:36.986Z,11.70
2023-04-30T15:10:05.833Z,11.70
2023-04-30T15:12:34.608Z,11.65
2023-04-30T15:15:05.967Z,11.64
2023-04-30T15:17:36.977Z,11.64
2023-04-30T15:20:06.531Z,11.59
2023-04-30T15:22:35.593Z,11.60
2023-04-30T15:25:04.012Z,11.57
2023-04-30T15:27:33.937Z,11.56
2023-04-30T15:30:01.911Z,11.52
2023-04-30T15:32:32.290Z,11.47
2023-04-30T15:34:59.926Z,11.46
2023-04-30T15:37:27.593Z,11.45
2023-04-30T15:39:55.406Z,11.42
2023-04-30T15:42:23.131Z,11.42
2023-04-30T15:44:50.663Z,11.37
2023-04-30T15:47:18.998Z,11.36
2023-04-30T15:49:48.434Z,11.29
2023-04-30T15:52:16.162Z,11.23
2023-04-30T15:54:43.749Z,11.19
2023-04-30T15:57:11.626Z,11.14
2023-04-30T15:59:39.156Z,11.08
2023-04-30T16:02:06.933Z,11.07
2023-04-30T16:04:34.498Z,11.05
2023-04-30T16:07:02.303Z,10.99
2023-04-30T16:09:30.000Z,10.94
2023-04-30T16:11:58.141Z,10.90
2023-04-30T16:14:25.656Z,10.81
2023-04-30T16:16:53.381Z,10.86
2023-04-30T16:19:20.906Z,10.80
2023-04-30T16:21:48.652Z,10.75
2023-04-30T16:24:16.462Z,10.72
2023-04-30T16:26:44.081Z,10.67
2023-04-30T16:29:11.684Z,10.66
2023-04-30T16:31:39.511Z,10.61
2023-04-30T16:34:11.354Z,10.60
2023-04-30T16:36:39.446Z,10.56
2023-04-30T16:39:06.983Z,10.51
2023-04-30T16:41:34.599Z,10.49
2023-04-30T16:44:02.684Z,10.44
2023-04-30T16:46:30.477Z,10.42
2023-04-30T16:48:58.325Z,10.30
2023-04-30T16:51:27.353Z,10.28
2023-04-30T16:53:55.035Z,10.23
2023-04-30T16:56:22.684Z,10.15
2023-04-30T16:58:50.298Z,10.10
2023-04-30T17:01:17.875Z,10.06
2023-04-30T17:03:46.419Z,10.04
2023-04-30T17:06:14.546Z,10.00
2023-04-30T17:08:42.223Z,9.99
2023-04-30T17:11:10.113Z,9.90
2023-04-30T17:13:37.820Z,9.83
2023-04-30T17:16:05.905Z,9.82
2023-04-30T17:18:33.513Z,9.80
2023-04-30T17:21:01.342Z,9.78
2023-04-30T17:23:28.923Z,9.71
2023-04-30T17:25:56.584Z,9.64
2023-04-30T17:28:24.407Z,9.56
2023-04-30T17:30:52.669Z,9.51
2023-04-30T17:33:20.319Z,9.43
2023-04-30T17:35:47.789Z,9.37
2023-04-30T17:38:15.842Z,9.35
2023-04-30T17:40:43.364Z,9.28
2023-04-30T17:43:11.516Z,9.27
2023-04-30T17:45:39.086Z,9.22
2023-04-30T17:48:07.661Z,9.18
2023-04-30T17:50:36.217Z,9.18
2023-04-30T17:53:03.999Z,9.16
2023-04-30T17:55:31.531Z,9.13
2023-04-30T17:57:59.622Z,9.03
2023-04-30T18:00:27.183Z,9.02
2023-04-30T18:02:54.923Z,8.95
2023-04-30T18:05:22.654Z,8.93
2023-04-30T18:07:50.240Z,8.92
2023-04-30T18:10:18.018Z,8.87
2023-04-30T18:12:45.866Z,8.88
2023-04-30T18:15:15.302Z,8.86
2023-04-30T18:17:42.997Z,8.80
2023-04-30T18:20:12.442Z,8.87
2023-04-30T18:22:43.559Z,8.84
2023-04-30T18:25:13.167Z,8.82
2023-04-30T18:27:41.192Z,8.79
2023-04-30T18:30:09.854Z,8.79
2023-04-30T18:32:37.885Z,8.78
2023-04-30T18:35:05.884Z,8.79
2023-04-30T18:37:33.973Z,8.77
2023-04-30T18:40:01.640Z,8.76
2023-04-30T18:42:33.519Z,8.81
2023-04-30T18:45:02.294Z,8.84
2023-04-30T18:47:33.787Z,8.87
2023-04-30T18:50:01.843Z,8.86
2023-04-30T18:52:30.581Z,8.81
2023-04-30T18:54:58.252Z,8.82
2023-04-30T18:57:25.743Z,8.85
2023-04-30T18:59:53.913Z,8.83
2023-04-30T19:02:24.415Z,8.83
2023-04-30T19:04:52.443Z,8.79
2023-04-30T19:07:20.057Z,8.82
2023-04-30T19:09:48.567Z,8.77
2023-04-30T19:12:16.164Z,8.75
2023-04-30T19:14:44.592Z,8.75
2023-04-30T19:17:13.033Z,8.76
2023-04-30T19:19:43.274Z,8.75
2023-04-30T19:22:11.749Z,8.73
2023-04-30T19:24:39.294Z,8.71
2023-04-30T19:27:06.873Z,8.63
2023-04-30T19:29:34.376Z,8.68
2023-04-30T19:32:04.603Z,8.66
2023-04-30T19:34:32.400Z,8.70
2023-04-30T19:37:00.642Z,8.71
2023-04-30T19:39:32.122Z,8.69
2023-04-30T19:41:59.839Z,8.67
2023-04-30T19:44:29.462Z,8.63
2023-04-30T19:46:57.822Z,8.63
2023-04-30T19:49:26.565Z,8.68
2023-04-30T19:51:54.941Z,8.64
2023-04-30T19:54:22.700Z,8.69
2023-04-30T19:56:53.025Z,8.69
2023-04-30T19:59:20.958Z,8.69
2023-04-30T20:01:48.785Z,8.67
2023-04-30T20:04:16.732Z,8.70
2023-04-30T20:06:45.067Z,8.66
2023-04-30T20:09:12.962Z,8.73
2023-04-30T20:11:40.549Z,8.68
2023-04-30T20:14:08.307Z,8.71
2023-04-30T20:16:36.072Z,8.69
2023-04-30T20:19:04.559Z,8.62
2023-04-30T20:21:32.358Z,8.66
2023-04-30T20:24:00.353Z,8.64
2023-04-30T20:26:29.358Z,8.63
2023-04-30T20:28:57.283Z,8.58
2023-04-30T20:31:24.988Z,8.60
2023-04-30T20:33:52.669Z,8.56
2023-04-30T20:36:20.423Z,8.52
2023-04-30T20:38:48.748Z,8.53
2023-04-30T20:41:16.346Z,8.51
2023-04-30T20:43:43.805Z,8.49
2023-04-30T20:46:13.933Z,8.52
2023-04-30T20:48:41.617Z,8.50
2023-04-30T20:51:10.470Z,8.48
2023-04-30T20:53:38.185Z,8.45
2023-04-30T20:56:05.887Z,8.48
2023-04-30T20:58:33.574Z,8.46
2023-04-30T21:01:01.237Z,8.47
2023-04-30T21:03:28.869Z,8.44
2023-04-30T21:05:56.452Z,8.47
2023-04-30T21:08:24.086Z,8.47
2023-04-30T21:10:51.742Z,8.46
2023-04-30T21:13:19.528Z,8.48
2023-04-30T21:15:48.806Z,8.48
2023-04-30T21:18:16.702Z,8.45
2023-04-30T21:20:44.402Z,8.47
2023-04-30T21:23:12.821Z,8.47
2023-04-30T21:25:40.779Z,8.47
2023-04-30T21:28:08.553Z,8.50
2023-04-30T21:30:37.135Z,8.48
2023-04-30T21:33:04.858Z,8.54
2023-04-30T21:35:33.273Z,8.54
2023-04-30T21:38:01.202Z,8.56
2023-04-30T21:40:32.428Z,8.58
2023-04-30T21:43:01.641Z,8.51
2023-04-30T21:45:31.682Z,8.51
2023-04-30T21:47:59.393Z,8.51
2023-04-30T21:50:28.304Z,8.54
2023-04-30T21:52:56.068Z,8.54
2023-04-30T21:55:23.670Z,8.51
2023-04-30T21:57:51.703Z,8.53
2023-04-30T22:00:19.553Z,8.55
2023-04-30T22:02:50.890Z,8.57
2023-04-30T22:05:19.841Z,8.58
2023-04-30T22:07:48.328Z,8.59
2023-04-30T22:10:16.148Z,8.60
2023-04-30T22:12:47.380Z,8.61
2023-04-30T22:15:15.971Z,8.63
2023-04-30T22:17:43.789Z,8.63
2023-04-30T22:20:11.741Z,8.64
2023-04-30T22:22:39.553Z,8.62
2023-04-30T22:25:09.185Z,8.66
2023-04-30T22:27:37.254Z,8.67
2023-04-30T22:30:06.179Z,8.61
2023-04-30T22:32:34.539Z,8.66
2023-04-30T22:35:03.180Z,8.69
2023-04-30T22:37:33.116Z,8.65
2023-04-30T22:40:00.717Z,8.68
2023-04-30T22:42:28.993Z,8.71
2023-04-30T22:44:57.545Z,8.70
2023-04-30T22:47:27.577Z,8.68
2023-04-30T22:49:56.521Z,8.69
2023-04-30T22:52:26.052Z,8.66
2023-04-30T22:54:53.827Z,8.68
2023-04-30T22:57:22.902Z,8.66
2023-04-30T22:59:50.690Z,8.68
2023-04-30T23:02:20.303Z,8.62
2023-04-30T23:04:48.461Z,8.64
2023-04-30T23:07:16.385Z,8.65
2023-04-30T23:09:45.259Z,8.62
2023-04-30T23:12:12.960Z,8.62
2023-04-30T23:14:40.452Z,8.64
2023-04-30T23:17:08.142Z,8.60
2023-04-30T23:19:38.576Z,8.63
2023-04-30T23:22:06.320Z,8.63
2023-04-30T23:24:35.973Z,8.62
2023-04-30T23:27:03.722Z,8.64
2023-04-30T23:29:31.635Z,8.63
2023-04-30T23:31:59.606Z,8.61
2023-04-30T23:34:27.432Z,8.62
2023-04-30T23:36:55.022Z,8.57
2023-04-30T23:39:24.471Z,8.58
2023-04-30T23:41:55.071Z,8.57
2023-04-30T23:44:22.619Z,8.58
2023-04-30T23:46:51.086Z,8.55
2023-04-30T23:49:19.109Z,8.54
2023-04-30T23:51:47.095Z,8.56
2023-04-30T23:54:15.064Z,8.53
2023-04-30T23:56:42.690Z,8.55
2023-04-30T23:59:10.236Z,8.52
